Time;durP1;ratioP1;P1;durP2;ratioP2;P2;SDS_P1;SDS_P2;PMS_P1;PMS_P2;Temp;Humidity;BMP_temperature;BMP_pressure;BME280_temperature;BME280_humidity;BME280_pressure;Samples;Min_cycle;Max_cycle;Signal;HPM_P1;HPM_P2
2022/07/31 00:00:08;;;;;;;;;;;30.50;47.60;;;;;;669372;29;1420;-93
2022/07/31 00:01:59;;;;;;;;;;;30.50;47.30;;;;;;672089;29;1144;-92
2022/07/31 00:02:25;;;;;;;;;;;30.50;47.10;;;;;;670667;29;1058;-92
2022/07/31 00:03:00;;;;;;;;;;;30.50;47.30;;;;;;669371;29;1391;-91
2022/07/31 00:03:30;;;;;;;;;;;30.50;47.40;;;;;;670224;29;1348;-92
2022/07/31 00:03:59;;;;;;;;;;;30.50;47.20;;;;;;669893;29;1579;-92
2022/07/31 00:04:27;;;;;;;;;;;;;;;;;;667693;29;1419;-92
2022/07/31 00:04:53;;;;;;;;;;;30.50;47.40;;;;;;670314;29;1128;-93
2022/07/31 00:05:22;;;;;;;;;;;30.50;47.10;;;;;;668732;29;1212;-92
2022/07/31 00:06:09;;;;;;;;;;;30.50;47.50;;;;;;665105;29;1225;-91
2022/07/31 00:06:40;;;;;;;;;;;;;;;;;;;;;
2022/07/31 00:07:10;;;;;;;;;;;;;;;;;;667343;29;1311;-92
2022/07/31 00:07:42;;;;;;;;;;;30.50;47.20;;;;;;667618;29;1181;-92
2022/07/31 00:08:05;;;;;;;;;;;30.50;47.20;;;;;;665042;29;1946;-91
2022/07/31 00:08:40;;;;;;;;;;;30.50;47.20;;;;;;662475;29;1205;-91
2022/07/31 00:09:04;;;;;;;;;;;30.50;47.30;;;;;;662827;29;1251;-92
2022/07/31 00:09:35;;;;;;;;;;;;;;;;;;;;;
2022/07/31 00:09:58;;;;;;;;;;;30.50;47.30;;;;;;668967;29;1359;-91
2022/07/31 00:10:26;;;;;;;;;;;30.50;47.50;;;;;;669694;29;1258;-91
2022/07/31 00:10:47;;;;;;;;;;;30.50;47.20;;;;;;670343;29;1216;-92
2022/07/31 00:11:11;;;;;;;;;;;30.40;47.00;;;;;;670371;29;1343;-92
2022/07/31 00:11:34;;;;;;;;;;;30.40;47.00;;;;;;670138;29;1388;-90
2022/07/31 00:12:00;;;;;;;;;;;30.40;47.10;;;;;;670135;29;1279;-92
2022/07/31 00:12:27;;;;;;;;;;;30.40;47.10;;;;;;667620;29;1211;-92
2022/07/31 00:12:59;;;;;;;;;;;30.40;47.10;;;;;;667566;29;1260;-91
2022/07/31 00:13:24;;;;;;;;;;;30.40;46.90;;;;;;664196;29;1379;-92
2022/07/31 00:13:50;;;;;;;;;;;30.40;46.90;;;;;;661506;29;1320;-91
2022/07/31 00:14:16;;;;;;;;;;;30.40;47.00;;;;;;661079;29;1147;-92
2022/07/31 00:14:37;;;;;;;;;;;30.40;47.00;;;;;;665027;29;1349;-92
2022/07/31 00:15:00;;;;;;;;;;;30.40;47.00;;;;;;662916;29;1260;-91
2022/07/31 00:15:24;;;;;;;;;;;30.40;47.20;;;;;;662717;29;1311;-92
2022/07/31 00:15:54;;;;;;;;;;;30.40;47.10;;;;;;660165;29;1341;-92
2022/07/31 00:16:18;;;;;;;;;;;;;;;;;;660111;29;1280;-92
2022/07/31 00:16:56;;;;;;;;;;;30.40;47.10;;;;;;660127;29;1176;-91
2022/07/31 00:17:17;;;;;;;;;;;30.00;46.70;;;;;;660642;29;1275;-92
2022/07/31 00:17:41;;;;;;;;;;;30.40;47.10;;;;;;664131;29;1299;-91
2022/07/31 00:18:07;;;;;;;;;;;30.40;47.10;;;;;;663915;29;1602;-92
2022/07/31 00:18:51;;;;;;;;;;;30.40;47.00;;;;;;665911;29;1130;-92
2022/07/31 00:19:27;;;;;;;;;;;;;;;;;;;;;
2022/07/31 00:19:53;;;;;;;;;;;30.40;47.20;;;;;;657551;30;1354;-90
2022/07/31 00:20:17;;;;;;;;;;;30.40;47.20;;;;;;659613;30;1439;-91
2022/07/31 00:20:46;;;;;;;;;;;30.40;47.00;;;;;;657477;30;1393;-92
2022/07/31 00:21:12;;;;;;;;;;;30.40;47.10;;;;;;659573;30;1423;-92
2022/07/31 00:21:33;;;;;;;;;;;30.40;47.10;;;;;;657392;30;1254;-93
2022/07/31 00:21:56;;;;;;;;;;;30.40;47.10;;;;;;655093;30;1291;-93
2022/07/31 00:22:20;;;;;;;;;;;30.40;47.10;;;;;;655407;30;1271;-93
2022/07/31 00:22:43;;;;;;;;;;;30.40;47.10;;;;;;654703;30;1500;-93
2022/07/31 00:23:11;;;;;;;;;;;;;;;;;;652919;30;1375;-94
2022/07/31 00:23:31;;;;;;;;;;;30.40;47.00;;;;;;657162;30;1420;-92
2022/07/31 00:23:58;;;;;;;;;;;30.40;46.90;;;;;;657306;30;1447;-92
2022/07/31 00:24:21;;;;;;;;;;;30.40;47.00;;;;;;655358;30;1348;-92
2022/07/31 00:24:42;;;;;;;;;;;30.30;47.00;;;;;;655432;30;1296;-92
2022/07/31 00:25:02;;;;;;;;;;;30.30;46.90;;;;;;655413;30;1160;-92
2022/07/31 00:25:30;;;;;;;;;;;30.40;47.10;;;;;;654101;30;1357;-92
2022/07/31 00:25:51;;;;;;;;;;;30.30;47.10;;;;;;657309;30;1271;-90
2022/07/31 00:26:20;;;;;;;;;;;30.30;47.00;;;;;;656622;30;1312;-91
2022/07/31 00:26:44;;;;;;;;;;;30.30;47.00;;;;;;655017;30;1195;-90
2022/07/31 00:27:09;;;;;;;;;;;30.30;47.00;;;;;;655199;30;1155;-90
2022/07/31 00:27:41;;;;;;;;;;;30.30;47.00;;;;;;657126;30;1494;-92
2022/07/31 00:28:02;;;;;;;;;;;30.30;47.00;;;;;;658665;30;1900;-92
2022/07/31 00:28:23;;;;;;;;;;;30.30;47.10;;;;;;660247;29;1326;-92
2022/07/31 00:28:46;;;;;;;;;;;30.30;47.20;;;;;;662583;29;1245;-91
2022/07/31 00:29:12;;;;;;;;;;;30.30;47.10;;;;;;662585;29;1419;-91
2022/07/31 00:29:36;;;;;;;;;;;30.30;47.00;;;;;;662242;29;1248;-92
2022/07/31 00:29:59;;;;;;;;;;;30.30;47.10;;;;;;661609;29;1201;-93
2022/07/31 00:30:22;;;;;;;;;;;30.30;47.00;;;;;;658123;30;1313;-91
2022/07/31 00:30:51;;;;;;;;;;;30.40;47.00;;;;;;657527;30;1396;-91
2022/07/31 00:31:14;;;;;;;;;;;30.30;47.10;;;;;;660098;30;1267;-93
2022/07/31 00:31:35;;;;;;;;;;;30.30;47.00;;;;;;660144;30;1277;-90
2022/07/31 00:31:59;;;;;;;;;;;30.30;47.00;;;;;;660136;30;1215;-92
2022/07/31 00:32:28;;;;;;;;;;;30.30;47.20;;;;;;657736;29;1253;-91
2022/07/31 00:32:55;;;;;;;;;;;30.30;47.20;;;;;;659763;30;1144;-91
2022/07/31 00:33:18;;;;;;;;;;;30.30;47.10;;;;;;660130;29;1144;-91
2022/07/31 00:33:41;;;;;;;;;;;30.30;47.10;;;;;;660146;29;1402;-90
2022/07/31 00:34:04;;;;;;;;;;;30.30;47.20;;;;;;660412;29;1267;-90
2022/07/31 00:34:30;;;;;;;;;;;30.30;47.10;;;;;;655213;30;1399;-90
2022/07/31 00:34:56;;;;;;;;;;;30.30;47.10;;;;;;654988;30;1407;-91
2022/07/31 00:35:20;;;;;;;;;;;30.30;47.00;;;;;;657698;30;1229;-93
2022/07/31 00:35:40;;;;;;;;;;;30.30;47.10;;;;;;655246;29;1249;-92
2022/07/31 00:36:12;;;;;;;;;;;30.30;47.00;;;;;;657339;30;1365;-91
2022/07/31 00:36:38;;;;;;;;;;;30.30;47.10;;;;;;657931;29;1121;-92
2022/07/31 00:37:01;;;;;;;;;;;30.30;47.00;;;;;;657579;29;1248;-92
2022/07/31 00:37:22;;;;;;;;;;;30.30;47.10;;;;;;660209;29;1229;-93
2022/07/31 00:37:55;;;;;;;;;;;;;;;;;;;;;
2022/07/31 00:38:19;;;;;;;;;;;30.30;47.10;;;;;;660019;29;1224;-92
2022/07/31 00:38:45;;;;;;;;;;;;;;;;;;660178;29;1236;-91
2022/07/31 00:39:06;;;;;;;;;;;30.20;47.00;;;;;;660680;29;1216;-92
2022/07/31 00:39:31;;;;;;;;;;;30.30;47.10;;;;;;663757;29;1197;-92
2022/07/31 00:39:54;;;;;;;;;;;30.30;47.10;;;;;;667644;29;1292;-91
2022/07/31 00:40:18;;;;;;;;;;;30.30;47.00;;;;;;667775;29;1250;-92
2022/07/31 00:40:53;;;;;;;;;;;30.30;47.00;;;;;;665348;29;1206;-91
2022/07/31 00:41:17;;;;;;;;;;;30.30;47.10;;;;;;662520;29;1306;-94
2022/07/31 00:41:41;;;;;;;;;;;30.20;47.00;;;;;;664498;29;1348;-91
2022/07/31 00:42:25;;;;;;;;;;;30.20;47.10;;;;;;665842;29;1288;-92
2022/07/31 00:42:48;;;;;;;;;;;30.30;47.10;;;;;;667671;29;1114;-92
2022/07/31 00:43:11;;;;;;;;;;;30.20;47.00;;;;;;667330;29;1543;-93
2022/07/31 00:43:31;;;;;;;;;;;30.20;47.00;;;;;;663734;29;1357;-92
2022/07/31 00:44:04;;;;;;;;;;;30.20;47.00;;;;;;661401;29;1431;-92
2022/07/31 00:45:13;;;;;;;;;;;30.20;47.00;;;;;;665033;29;1192;-92
2022/07/31 00:45:36;;;;;;;;;;;30.20;47.00;;;;;;668470;29;1370;-92
2022/07/31 00:46:03;;;;;;;;;;;30.20;46.90;;;;;;667547;29;1370;-93
2022/07/31 00:46:33;;;;;;;;;;;30.20;47.00;;;;;;665547;29;1157;-91
2022/07/31 00:46:53;;;;;;;;;;;30.20;47.00;;;;;;665109;29;1296;-91
2022/07/31 00:47:17;;;;;;;;;;;30.20;47.00;;;;;;664953;29;1292;-92
2022/07/31 00:48:35;;;;;;;;;;;30.20;47.10;;;;;;668838;29;1281;-91
2022/07/31 00:49:02;;;;;;;;;;;30.20;47.00;;;;;;669169;29;1300;-93
2022/07/31 00:49:23;;;;;;;;;;;30.20;47.10;;;;;;668659;29;1404;-92
2022/07/31 00:49:44;;;;;;;;;;;30.20;47.30;;;;;;668944;29;1141;-92
2022/07/31 00:50:08;;;;;;;;;;;30.20;47.10;;;;;;668952;29;1254;-92
2022/07/31 00:50:29;;;;;;;;;;;30.20;47.00;;;;;;667540;29;1537;-92
2022/07/31 00:50:51;;;;;;;;;;;30.20;47.00;;;;;;670502;29;1390;-92
2022/07/31 00:51:15;;;;;;;;;;;30.20;46.90;;;;;;671692;29;1142;-92
2022/07/31 00:51:36;;;;;;;;;;;30.20;46.90;;;;;;670348;29;1197;-92
2022/07/31 00:51:57;;;;;;;;;;;30.20;46.90;;;;;;670466;29;1315;-92
2022/07/31 00:52:20;;;;;;;;;;;30.20;46.90;;;;;;668115;29;1300;-92
2022/07/31 00:52:46;;;;;;;;;;;30.20;46.90;;;;;;666787;29;1406;-92
2022/07/31 00:53:16;;;;;;;;;;;30.20;47.10;;;;;;669302;29;1273;-92
2022/07/31 00:53:37;;;;;;;;;;;30.20;47.10;;;;;;667809;29;1371;-93
2022/07/31 00:54:10;;;;;;;;;;;30.20;47.00;;;;;;670370;29;1362;-92
2022/07/31 00:54:55;;;;;;;;;;;30.20;46.90;;;;;;670017;29;1410;-92
2022/07/31 00:55:16;;;;;;;;;;;30.10;46.90;;;;;;675360;29;1579;-93
2022/07/31 00:55:42;;;;;;;;;;;30.10;47.00;;;;;;675216;29;1400;-91
2022/07/31 00:56:11;;;;;;;;;;;30.10;46.90;;;;;;675168;29;1256;-91
2022/07/31 00:56:40;;;;;;;;;;;30.20;47.00;;;;;;672602;29;1251;-93
2022/07/31 00:57:18;;;;;;;;;;;;;;;;;;;;;
2022/07/31 00:57:44;;;;;;;;;;;30.20;47.10;;;;;;664975;29;1390;-92
2022/07/31 00:58:05;;;;;;;;;;;30.20;46.90;;;;;;667523;29;1285;-92
2022/07/31 00:58:25;;;;;;;;;;;30.20;47.00;;;;;;666447;29;1232;-92
2022/07/31 00:58:56;;;;;;;;;;;30.20;46.90;;;;;;670042;29;1250;-94
2022/07/31 00:59:19;;;;;;;;;;;30.20;46.80;;;;;;670388;29;1357;-93
2022/07/31 00:59:48;;;;;;;;;;;30.20;46.90;;;;;;670237;29;1136;-92
2022/07/31 01:00:15;;;;;;;;;;;30.10;46.80;;;;;;670379;29;1576;-93
2022/07/31 01:00:38;;;;;;;;;;;30.10;46.80;;;;;;667639;29;1378;-92
2022/07/31 01:01:03;;;;;;;;;;;30.10;46.80;;;;;;667673;29;1153;-92
2022/07/31 01:01:30;;;;;;;;;;;30.10;46.80;;;;;;667247;29;1346;-92
2022/07/31 01:01:53;;;;;;;;;;;30.10;46.80;;;;;;667695;29;1266;-93
2022/07/31 01:02:19;;;;;;;;;;;30.20;46.90;;;;;;672870;29;1186;-92
2022/07/31 01:02:40;;;;;;;;;;;30.20;46.90;;;;;;675060;29;1231;-92
2022/07/31 01:03:06;;;;;;;;;;;30.10;46.80;;;;;;675438;29;1140;-91
2022/07/31 01:03:30;;;;;;;;;;;30.20;46.90;;;;;;672624;29;1231;-92
2022/07/31 01:03:54;;;;;;;;;;;30.10;46.80;;;;;;672759;29;1284;-91
2022/07/31 01:04:26;;;;;;;;;;;30.20;46.90;;;;;;672663;29;1184;-92
2022/07/31 01:04:57;;;;;;;;;;;30.20;46.90;;;;;;670253;29;1340;-92
2022/07/31 01:05:42;;;;;;;;;;;30.20;46.90;;;;;;667435;29;1269;-91
2022/07/31 01:06:06;;;;;;;;;;;30.10;46.70;;;;;;668800;29;1393;-92
2022/07/31 01:06:31;;;;;;;;;;;30.10;46.70;;;;;;670238;29;1177;-92
2022/07/31 01:06:56;;;;;;;;;;;30.10;46.70;;;;;;670247;29;1259;-91
2022/07/31 01:07:24;;;;;;;;;;;30.10;46.80;;;;;;670115;29;1252;-91
2022/07/31 01:07:45;;;;;;;;;;;30.10;47.00;;;;;;667582;29;1343;-88
2022/07/31 01:08:09;;;;;;;;;;;30.20;47.00;;;;;;667350;29;1970;-92
2022/07/31 01:08:40;;;;;;;;;;;;;;;;;;;;;
2022/07/31 01:09:13;;;;;;;;;;;30.20;47.00;;;;;;672837;29;1221;-91
2022/07/31 01:09:34;;;;;;;;;;;30.20;46.70;;;;;;672636;29;1354;-91
2022/07/31 01:10:00;;;;;;;;;;;30.10;46.60;;;;;;672744;29;1284;-92
2022/07/31 01:10:39;;;;;;;;;;;30.20;46.80;;;;;;672696;29;1372;-91
2022/07/31 01:11:28;;;;;;;;;;;30.20;46.90;;;;;;672554;29;1208;-91
2022/07/31 01:12:15;;;;;;;;;;;30.20;46.90;;;;;;668321;29;1233;-92
2022/07/31 01:12:49;;;;;;;;;;;30.20;46.70;;;;;;675213;29;1245;-93
2022/07/31 01:13:22;;;;;;;;;;;30.20;46.70;;;;;;672513;29;1249;-92
2022/07/31 01:13:51;;;;;;;;;;;30.20;46.60;;;;;;672692;29;1248;-93
2022/07/31 01:14:16;;;;;;;;;;;30.20;46.70;;;;;;672537;29;1286;-92
2022/07/31 01:14:45;;;;;;;;;;;30.20;46.70;;;;;;672644;29;1147;-92
2022/07/31 01:15:09;;;;;;;;;;;30.20;46.60;;;;;;669957;29;1489;-93
2022/07/31 01:15:33;;;;;;;;;;;30.10;46.60;;;;;;667602;29;1394;-92
2022/07/31 01:15:58;;;;;;;;;;;30.20;46.50;;;;;;669887;29;1430;-92
2022/07/31 01:16:29;;;;;;;;;;;30.20;46.70;;;;;;667578;29;1334;-92
2022/07/31 01:16:57;;;;;;;;;;;30.20;46.90;;;;;;667642;29;1237;-92
2022/07/31 01:17:24;;;;;;;;;;;30.20;46.60;;;;;;667581;29;1244;-92
2022/07/31 01:17:48;;;;;;;;;;;30.20;46.50;;;;;;667812;29;1240;-91
2022/07/31 01:18:10;;;;;;;;;;;30.20;46.50;;;;;;669075;29;1272;-92
2022/07/31 01:18:50;;;;;;;;;;;30.30;46.80;;;;;;667274;29;1379;-92
2022/07/31 01:19:26;;;;;;;;;;;30.20;46.50;;;;;;669529;29;1300;-93
2022/07/31 01:19:50;;;;;;;;;;;30.30;46.70;;;;;;670206;29;1252;-92
2022/07/31 01:20:19;;;;;;;;;;;30.20;46.30;;;;;;669846;29;1269;-91
2022/07/31 01:20:43;;;;;;;;;;;30.30;46.40;;;;;;670164;29;1261;-93
2022/07/31 01:21:16;;;;;;;;;;;30.20;46.30;;;;;;670037;29;1227;-93
2022/07/31 01:21:41;;;;;;;;;;;30.30;46.40;;;;;;671319;29;1413;-91
2022/07/31 01:22:20;;;;;;;;;;;30.20;46.60;;;;;;670202;29;1252;-92
2022/07/31 01:22:44;;;;;;;;;;;30.30;46.40;;;;;;667779;29;1399;-92
2022/07/31 01:23:26;;;;;;;;;;;30.30;46.30;;;;;;665033;29;1430;-92
2022/07/31 01:24:02;;;;;;;;;;;30.30;46.50;;;;;;668116;29;1240;-94
2022/07/31 01:24:29;;;;;;;;;;;30.30;46.50;;;;;;667592;29;1431;-92
2022/07/31 01:24:50;;;;;;;;;;;;;;;;;;667512;29;1251;-91
2022/07/31 01:25:28;;;;;;;;;;;30.20;46.30;;;;;;667978;29;1386;-92
2022/07/31 01:26:04;;;;;;;;;;;30.20;46.30;;;;;;664876;29;1199;-92
2022/07/31 01:26:45;;;;;;;;;;;31.40;47.10;;;;;;667638;29;1359;-91
2022/07/31 01:27:27;;;;;;;;;;;30.30;46.30;;;;;;664443;29;1304;-93
2022/07/31 01:28:13;;;;;;;;;;;30.20;46.30;;;;;;665000;29;1253;-91
2022/07/31 01:28:56;;;;;;;;;;;30.20;46.30;;;;;;667458;29;1346;-91
2022/07/31 01:29:34;;;;;;;;;;;30.30;46.50;;;;;;667633;29;1395;-93
2022/07/31 01:30:00;;;;;;;;;;;30.20;46.10;;;;;;669675;29;1194;-92
2022/07/31 01:30:31;;;;;;;;;;;30.30;46.10;;;;;;667528;29;1121;-91
2022/07/31 01:31:04;;;;;;;;;;;30.30;46.40;;;;;;667613;29;1323;-93
2022/07/31 01:31:34;;;;;;;;;;;30.30;46.10;;;;;;667520;29;1206;-92
2022/07/31 01:32:05;;;;;;;;;;;30.30;46.30;;;;;;667375;29;1371;-90
2022/07/31 01:32:49;;;;;;;;;;;30.30;46.30;;;;;;664568;29;1411;-93
2022/07/31 01:33:13;;;;;;;;;;;30.30;46.20;;;;;;665844;29;1129;-91
2022/07/31 01:34:38;;;;;;;;;;;30.20;46.10;;;;;;669487;29;1297;-91
2022/07/31 01:35:31;;;;;;;;;;;30.30;46.20;;;;;;670263;29;1152;-92
2022/07/31 01:36:00;;;;;;;;;;;30.30;46.30;;;;;;666946;29;1296;-92
2022/07/31 01:36:30;;;;;;;;;;;30.20;46.00;;;;;;665437;29;1171;-92
2022/07/31 01:37:01;;;;;;;;;;;30.30;46.20;;;;;;665503;29;1253;-91
2022/07/31 01:37:41;;;;;;;;;;;30.30;46.20;;;;;;665547;29;1255;-92
2022/07/31 01:38:22;;;;;;;;;;;30.30;46.20;;;;;;664263;29;1492;-92
2022/07/31 01:38:57;;;;;;;;;;;30.20;46.00;;;;;;665991;29;1234;-91
2022/07/31 01:39:29;;;;;;;;;;;30.30;46.10;;;;;;664721;29;1328;-93
2022/07/31 01:40:02;;;;;;;;;;;30.30;46.20;;;;;;664683;29;1218;-91
2022/07/31 01:40:29;;;;;;;;;;;30.30;46.20;;;;;;664765;29;1267;-92
2022/07/31 01:40:53;;;;;;;;;;;30.20;46.00;;;;;;672436;29;1464;-92
2022/07/31 01:41:31;;;;;;;;;;;30.20;46.10;;;;;;672249;29;1353;-92
2022/07/31 01:42:11;;;;;;;;;;;30.30;46.00;;;;;;672318;29;1347;-92
2022/07/31 01:42:51;;;;;;;;;;;30.20;45.80;;;;;;668699;29;1483;-92
2022/07/31 01:43:16;;;;;;;;;;;30.20;45.80;;;;;;662869;29;1269;-91
2022/07/31 01:43:44;;;;;;;;;;;30.20;45.80;;;;;;664623;29;1403;-92
2022/07/31 01:44:17;;;;;;;;;;;30.20;45.90;;;;;;665111;29;1117;-90
2022/07/31 01:44:46;;;;;;;;;;;30.30;45.80;;;;;;667355;29;1163;-92
2022/07/31 01:45:13;;;;;;;;;;;30.20;45.80;;;;;;668980;29;1248;-93
2022/07/31 01:45:53;;;;;;;;;;;30.20;45.90;;;;;;665559;29;1276;-92
2022/07/31 01:46:18;;;;;;;;;;;30.20;45.80;;;;;;667432;29;1225;-93
2022/07/31 01:46:45;;;;;;;;;;;30.20;45.90;;;;;;662663;29;1295;-93
2022/07/31 01:47:14;;;;;;;;;;;30.10;45.70;;;;;;661637;29;1239;-92
2022/07/31 01:47:46;;;;;;;;;;;30.20;45.90;;;;;;662881;29;1267;-92
2022/07/31 01:48:32;;;;;;;;;;;30.20;45.80;;;;;;663094;29;1919;-93
2022/07/31 01:49:34;;;;;;;;;;;;;;;;;;;;;
2022/07/31 01:49:59;;;;;;;;;;;30.20;45.80;;;;;;663365;29;1279;-92
2022/07/31 01:50:23;;;;;;;;;;;30.20;46.00;;;;;;660466;30;1325;-93
2022/07/31 01:51:25;;;;;;;;;;;30.20;45.90;;;;;;660871;29;1380;-93
2022/07/31 01:51:46;;;;;;;;;;;30.20;46.00;;;;;;661394;29;1134;-93
2022/07/31 01:52:28;;;;;;;;;;;30.20;45.90;;;;;;660219;29;1236;-94
2022/07/31 01:53:07;;;;;;;;;;;30.20;46.00;;;;;;663108;29;1496;-94
2022/07/31 01:54:58;;;;;;;;;;;30.20;45.90;;;;;;658373;30;652;-92
2022/07/31 01:55:19;;;;;;;;;;;30.20;46.00;;;;;;659005;29;1124;-94
2022/07/31 01:55:46;;;;;;;;;;;30.10;45.90;;;;;;660520;29;1232;-94
2022/07/31 01:56:15;;;;;;;;;;;30.20;46.10;;;;;;660799;29;1141;-94
2022/07/31 01:56:39;;;;;;;;;;;30.20;46.10;;;;;;660790;29;1167;-95
2022/07/31 01:57:02;;;;;;;;;;;30.10;46.00;;;;;;660547;29;1277;-94
2022/07/31 01:57:34;;;;;;;;;;;30.10;46.00;;;;;;663252;29;1209;-91
2022/07/31 01:57:55;;;;;;;;;;;30.10;46.00;;;;;;660007;29;1351;-91
2022/07/31 01:58:27;;;;;;;;;;;30.20;46.00;;;;;;660654;29;1266;-93
2022/07/31 01:58:50;;;;;;;;;;;30.20;46.10;;;;;;660618;29;1277;-95
2022/07/31 01:59:15;;;;;;;;;;;30.10;46.10;;;;;;660852;29;1250;-94
2022/07/31 01:59:39;;;;;;;;;;;30.20;46.00;;;;;;660569;29;1398;-93
2022/07/31 02:00:05;;;;;;;;;;;30.10;46.10;;;;;;661644;29;1415;-94
2022/07/31 02:00:29;;;;;;;;;;;;;;;;;;661073;29;1372;-95
2022/07/31 02:01:08;;;;;;;;;;;30.10;46.00;;;;;;662247;29;1162;-93
2022/07/31 02:01:32;;;;;;;;;;;30.10;46.10;;;;;;664042;29;1345;-93
2022/07/31 02:02:02;;;;;;;;;;;30.20;46.10;;;;;;660719;30;1321;-93
2022/07/31 02:02:25;;;;;;;;;;;30.10;46.00;;;;;;662036;29;1296;-92
2022/07/31 02:02:50;;;;;;;;;;;30.20;46.00;;;;;;660203;30;1316;-94
2022/07/31 02:03:29;;;;;;;;;;;;;;;;;;;;;
2022/07/31 02:04:21;;;;;;;;;;;;;;;;;;;;;
2022/07/31 02:04:50;;;;;;;;;;;30.10;45.90;;;;;;664859;29;1152;-93
2022/07/31 02:05:26;;;;;;;;;;;30.20;46.00;;;;;;665602;29;1100;-95
2022/07/31 02:05:47;;;;;;;;;;;30.10;46.00;;;;;;662840;29;1252;-94
2022/07/31 02:06:11;;;;;;;;;;;30.20;46.00;;;;;;665628;29;1232;-93
2022/07/31 02:06:39;;;;;;;;;;;30.10;46.00;;;;;;665238;29;1351;-93
2022/07/31 02:07:14;;;;;;;;;;;30.10;46.00;;;;;;663773;29;1262;-94
2022/07/31 02:07:56;;;;;;;;;;;30.10;45.80;;;;;;668534;29;1354;-94
2022/07/31 02:08:48;;;;;;;;;;;30.10;45.80;;;;;;667302;29;1969;-95
2022/07/31 02:09:08;;;;;;;;;;;30.20;45.80;;;;;;667317;29;996;-93
2022/07/31 02:09:37;;;;;;;;;;;30.20;45.80;;;;;;666815;29;1321;-94
2022/07/31 02:10:15;;;;;;;;;;;30.20;45.80;;;;;;666118;29;1342;-93
2022/07/31 02:10:45;;;;;;;;;;;30.20;46.00;;;;;;665849;29;1339;-93
2022/07/31 02:11:08;;;;;;;;;;;30.20;45.80;;;;;;665900;29;1393;-93
2022/07/31 02:11:35;;;;;;;;;;;30.20;46.00;;;;;;668502;29;1192;-96
2022/07/31 02:11:56;;;;;;;;;;;30.20;46.00;;;;;;668209;29;1186;-93
2022/07/31 02:12:27;;;;;;;;;;;30.20;45.90;;;;;;667701;29;1486;-92
2022/07/31 02:12:54;;;;;;;;;;;30.10;45.70;;;;;;667998;29;1336;-92
2022/07/31 02:13:20;;;;;;;;;;;30.20;45.80;;;;;;668896;29;1505;-91
2022/07/31 02:13:54;;;;;;;;;;;30.20;45.70;;;;;;667559;29;1458;-92
2022/07/31 02:15:24;;;;;;;;;;;30.10;45.80;;;;;;676370;29;1145;-92
2022/07/31 02:15:54;;;;;;;;;;;30.10;45.80;;;;;;673091;29;1255;-94
2022/07/31 02:16:26;;;;;;;;;;;30.10;45.80;;;;;;675036;29;1483;-91
2022/07/31 02:16:52;;;;;;;;;;;30.10;45.90;;;;;;673170;29;1282;-94
2022/07/31 02:17:14;;;;;;;;;;;30.10;46.00;;;;;;670490;29;1395;-92
2022/07/31 02:17:35;;;;;;;;;;;30.10;46.00;;;;;;670169;29;1199;-93
2022/07/31 02:18:00;;;;;;;;;;;30.10;45.90;;;;;;670683;29;1125;-96
2022/07/31 02:18:23;;;;;;;;;;;30.10;46.00;;;;;;671083;29;1434;-92
2022/07/31 02:18:47;;;;;;;;;;;30.10;46.00;;;;;;672181;29;1449;-93
2022/07/31 02:19:13;;;;;;;;;;;30.10;46.00;;;;;;671991;29;1365;-93
2022/07/31 02:19:37;;;;;;;;;;;30.10;46.10;;;;;;671967;29;1457;-92
2022/07/31 02:19:59;;;;;;;;;;;30.10;46.10;;;;;;670118;29;1218;-92
2022/07/31 02:20:25;;;;;;;;;;;30.10;46.10;;;;;;672322;29;1275;-91
2022/07/31 02:20:55;;;;;;;;;;;30.10;46.10;;;;;;670291;29;1304;-92
2022/07/31 02:21:41;;;;;;;;;;;30.10;46.00;;;;;;673023;29;1292;-93
2022/07/31 02:22:22;;;;;;;;;;;;;;;;;;;;;
2022/07/31 02:23:10;;;;;;;;;;;30.10;46.00;;;;;;675875;29;1139;-94
2022/07/31 02:23:32;;;;;;;;;;;30.10;46.00;;;;;;675520;29;1411;-92
2022/07/31 02:23:56;;;;;;;;;;;30.00;46.00;;;;;;673151;29;1322;-91
2022/07/31 02:24:26;;;;;;;;;;;30.10;46.10;;;;;;671262;29;1439;-94
2022/07/31 02:24:50;;;;;;;;;;;30.00;46.00;;;;;;670090;29;1310;-95
2022/07/31 02:25:12;;;;;;;;;;;;;;;;;;670339;29;1356;-92
2022/07/31 02:25:44;;;;;;;;;;;30.10;46.00;;;;;;673053;29;1434;-92
2022/07/31 02:26:15;;;;;;;;;;;30.00;46.00;;;;;;675474;29;1136;-93
2022/07/31 02:27:35;;;;;;;;;;;30.00;45.90;;;;;;678708;29;1322;-90
2022/07/31 02:28:04;;;;;;;;;;;30.00;46.00;;;;;;675166;29;1381;-93
2022/07/31 02:28:32;;;;;;;;;;;30.00;46.00;;;;;;678311;29;1333;-92
2022/07/31 02:28:58;;;;;;;;;;;26.30;43.40;;;;;;678136;29;1218;-92
2022/07/31 02:29:30;;;;;;;;;;;30.00;46.10;;;;;;678136;29;1361;-92
2022/07/31 02:29:53;;;;;;;;;;;30.00;46.10;;;;;;675411;29;1227;-92
2022/07/31 02:30:22;;;;;;;;;;;30.00;46.10;;;;;;675575;29;1314;-92
2022/07/31 02:31:09;;;;;;;;;;;30.00;46.20;;;;;;673070;29;1251;-92
2022/07/31 02:31:38;;;;;;;;;;;30.00;46.10;;;;;;672725;29;1273;-92
2022/07/31 02:32:11;;;;;;;;;;;30.00;46.10;;;;;;676051;29;1406;-92
2022/07/31 02:32:34;;;;;;;;;;;29.90;46.10;;;;;;678182;29;1157;-92
2022/07/31 02:33:07;;;;;;;;;;;30.00;46.10;;;;;;677791;29;1258;-93
2022/07/31 02:33:31;;;;;;;;;;;30.00;46.20;;;;;;676043;29;1419;-92
2022/07/31 02:34:04;;;;;;;;;;;30.00;46.10;;;;;;678122;29;1416;-92
2022/07/31 02:34:44;;;;;;;;;;;;;;;;;;;;;
2022/07/31 02:36:06;;;;;;;;;;;30.00;46.10;;;;;;677959;29;1366;-90
2022/07/31 02:36:30;;;;;;;;;;;30.00;46.20;;;;;;677796;29;1553;-92
2022/07/31 02:37:13;;;;;;;;;;;30.00;46.10;;;;;;678169;29;1347;-91
2022/07/31 02:38:02;;;;;;;;;;;30.00;46.10;;;;;;677870;29;1270;-91
2022/07/31 02:38:48;;;;;;;;;;;29.90;46.10;;;;;;678324;29;1210;-90
2022/07/31 02:39:10;;;;;;;;;;;29.90;46.10;;;;;;677971;29;1222;-92
2022/07/31 02:39:37;;;;;;;;;;;29.90;46.20;;;;;;673702;29;1294;-92
2022/07/31 02:40:19;;;;;;;;;;;29.90;46.20;;;;;;675949;29;1528;-92
2022/07/31 02:40:58;;;;;;;;;;;29.90;46.20;;;;;;675235;29;1377;-92
2022/07/31 02:41:23;;;;;;;;;;;29.90;46.10;;;;;;675507;29;1314;-89
2022/07/31 02:41:56;;;;;;;;;;;29.90;46.10;;;;;;674995;29;1330;-92
2022/07/31 02:42:23;;;;;;;;;;;29.90;46.20;;;;;;675590;29;1576;-91
2022/07/31 02:42:45;;;;;;;;;;;29.90;46.20;;;;;;675453;29;1588;-90
2022/07/31 02:43:31;;;;;;;;;;;29.90;46.20;;;;;;675874;29;1291;-90
2022/07/31 02:43:55;;;;;;;;;;;29.90;46.20;;;;;;675710;29;1360;-89
2022/07/31 02:44:30;;;;;;;;;;;29.90;46.20;;;;;;672464;29;1307;-92
2022/07/31 02:44:59;;;;;;;;;;;29.90;46.20;;;;;;673278;29;1262;-91
2022/07/31 02:45:24;;;;;;;;;;;29.90;46.20;;;;;;675468;29;1383;-92
2022/07/31 02:45:53;;;;;;;;;;;29.90;46.30;;;;;;675454;29;1237;-92
2022/07/31 02:46:19;;;;;;;;;;;29.90;46.20;;;;;;675258;29;1246;-91
2022/07/31 02:47:04;;;;;;;;;;;29.90;46.10;;;;;;674523;29;1374;-92
2022/07/31 02:47:31;;;;;;;;;;;29.90;46.20;;;;;;675428;29;1128;-91
2022/07/31 02:48:00;;;;;;;;;;;29.90;46.10;;;;;;675456;29;1491;-91
2022/07/31 02:48:26;;;;;;;;;;;29.90;46.10;;;;;;675100;29;1894;-92
2022/07/31 02:48:48;;;;;;;;;;;29.90;46.10;;;;;;675061;29;1298;-92
2022/07/31 02:49:12;;;;;;;;;;;29.90;46.10;;;;;;675415;29;1136;-91
2022/07/31 02:49:48;;;;;;;;;;;29.90;46.30;;;;;;675462;29;1517;-91
2022/07/31 02:50:17;;;;;;;;;;;29.90;46.20;;;;;;675485;29;1466;-92
2022/07/31 02:50:45;;;;;;;;;;;29.90;46.30;;;;;;675441;29;1472;-92
2022/07/31 02:51:07;;;;;;;;;;;;;;;;;;675318;29;1220;-94
2022/07/31 02:51:41;;;;;;;;;;;29.90;46.20;;;;;;674121;29;1246;-91
2022/07/31 02:52:04;;;;;;;;;;;29.90;46.20;;;;;;674161;29;1281;-92
2022/07/31 02:52:43;;;;;;;;;;;;;;;;;;;;;
2022/07/31 02:53:13;;;;;;;;;;;29.80;46.20;;;;;;673072;29;1432;-92
2022/07/31 02:53:43;;;;;;;;;;;29.90;46.20;;;;;;672447;29;1386;-90
2022/07/31 02:54:19;;;;;;;;;;;29.90;46.20;;;;;;672923;29;1176;-90
2022/07/31 02:54:59;;;;;;;;;;;29.90;46.30;;;;;;672951;29;1478;-91
2022/07/31 02:55:28;;;;;;;;;;;29.90;46.20;;;;;;670614;29;1462;-90
2022/07/31 02:55:49;;;;;;;;;;;29.90;46.20;;;;;;670295;29;1351;-91
2022/07/31 02:56:32;;;;;;;;;;;29.90;46.20;;;;;;670351;29;1174;-91
2022/07/31 02:57:01;;;;;;;;;;;29.80;46.20;;;;;;670966;29;1323;-92
2022/07/31 02:57:24;;;;;;;;;;;29.90;46.20;;;;;;667461;29;1251;-92
2022/07/31 02:57:47;;;;;;;;;;;29.90;46.20;;;;;;674109;29;1181;-92
2022/07/31 02:58:08;;;;;;;;;;;29.90;46.20;;;;;;672536;29;1253;-92
2022/07/31 02:58:37;;;;;;;;;;;29.90;46.20;;;;;;672811;29;1395;-91
2022/07/31 02:59:09;;;;;;;;;;;29.80;46.20;;;;;;672934;29;1287;-92
2022/07/31 02:59:37;;;;;;;;;;;29.90;46.20;;;;;;670009;29;1227;-91
2022/07/31 03:00:01;;;;;;;;;;;29.90;46.20;;;;;;668658;29;1283;-93
2022/07/31 03:00:33;;;;;;;;;;;29.90;46.30;;;;;;667746;29;1292;-90
2022/07/31 03:01:13;;;;;;;;;;;29.90;46.30;;;;;;669761;29;1121;-93
2022/07/31 03:01:39;;;;;;;;;;;29.90;46.30;;;;;;670418;29;1109;-93
2022/07/31 03:02:05;;;;;;;;;;;29.90;46.30;;;;;;670084;29;1366;-92
2022/07/31 03:02:38;;;;;;;;;;;;;;;;;;;;;
2022/07/31 03:03:02;;;;;;;;;;;29.90;46.20;;;;;;670607;29;761;-92
2022/07/31 03:03:34;;;;;;;;;;;29.90;46.20;;;;;;670546;29;1267;-91
2022/07/31 03:04:10;;;;;;;;;;;29.80;46.20;;;;;;671177;29;1207;-93
2022/07/31 03:04:47;;;;;;;;;;;29.90;46.30;;;;;;672940;29;1145;-93